CSCL Long Beach — VRCZ7 — position and weather

sailwx.info

Track history (hours):
 
Tides and Currents Weather Stations Pressure Air Temp Water Temp Dewpoint Dewpoint Depression Visibility Wind Speed Wind Dir Waves Ship Positions

CSCL Long Beach

Last reported at 2015-Mar-05 03:05 UTC. Time now 2015-Mar-06 04:05 UTC.
Position N 36°18' E 014°21'.

Length 336.7 m; beam 45.6 m; draft 15 m.

Type: Cargo ship. MMSI: 477883900.

Date/timePositionNaut miles runAvg speedWind from/ knotsBaromVisibWave heightAir tempDewpointWater temp
2015-Mar-05 03:05N 36°18' E 014°21'916.7
2015-Mar-05 02:33N 36°20' E 014°10'1716.5
2015-Mar-05 01:32N 36°25' E 013°50'1616.3
2015-Mar-05 00:33N 36°30' E 013°31'1716.4
2015-Mar-04 23:32N 36°35' E 013°12'1816.6
2015-Mar-04 22:26N 36°41' E 012°50'8016.3
2015-Mar-04 17:30N 37°18' E 011°20'1515.6
2015-Mar-04 16:33N 37°25' E 011°04'33217.0
2015-Mar-03 21:03N 37°43' E 004°06'1315.4
2015-Mar-03 20:13N 37°42' E 003°50'1015.2
2015-Mar-03 19:33N 37°41' E 003°37'2015.0
2015-Mar-03 18:12N 37°39' E 003°11'1015.0
2015-Mar-03 17:33N 37°37' E 002°59'1514.8
2015-Mar-03 16:32N 37°34' E 002°41'1514.9
2015-Mar-03 15:33N 37°30' E 002°23'1515.3
2015-Mar-03 14:33N 37°25' E 002°05'1615.9
2015-Mar-03 13:33N 37°20' E 001°46'1615.5
2015-Mar-03 12:33N 37°15' E 001°28'1815.8
2015-Mar-03 11:26N 37°09' E 001°07'1415.6
2015-Mar-03 10:33N 37°05' E 000°50'1615.8
2015-Mar-03 09:33N 36°59' E 000°32'1515.4
2015-Mar-03 08:34N 36°55' E 000°13'1918.7
2015-Mar-03 07:33N 36°49' W 000°09'1919.2
2015-Mar-03 06:33N 36°43' W 000°31'1615.6
2015-Mar-03 05:33N 36°35' W 000°48'1515.1
2015-Mar-03 04:33N 36°32' W 001°07'1615.5
2015-Mar-03 03:33N 36°28' W 001°25'1615.6
2015-Mar-03 02:33N 36°23' W 001°44'1715.4
2015-Mar-03 01:28N 36°17' W 002°03'15515.6
2015-Mar-02 15:33N 35°60' W 005°14'17515.8
2015-Mar-02 04:26N 36°29' W 008°48'1415.7
2015-Mar-02 03:33N 36°32' W 009°05'2015.2
2015-Mar-02 02:13N 36°41' W 009°28'2615.2
2015-Mar-02 00:30N 37°05' W 009°39'2115.6
2015-Mar-01 23:11N 37°25' W 009°44'1015.7
2015-Mar-01 22:33N 37°35' W 009°47'1615.7
2015-Mar-01 21:31N 37°51' W 009°52'1515.6
2015-Mar-01 20:33N 38°05' W 009°58'1716.6
2015-Mar-01 19:33N 38°21' W 010°03'1717.0
2015-Mar-01 18:33N 38°38' W 010°06'1716.5
2015-Mar-01 17:33N 38°55' W 010°07'1716.7
2015-Mar-01 16:33N 39°11' W 010°07'3316.2
2015-Mar-01 14:31N 39°44' W 010°06'1916.3
2015-Mar-01 13:19N 40°04' W 010°06'72814.1
2015-Feb-27 09:31N 50°20' W 000°56'1616.3
2015-Feb-27 08:33N 50°24' W 000°32'1715.8
2015-Feb-27 07:30N 50°28' W 000°07'1515.4
2015-Feb-27 06:32N 50°31' E 000°16'1515.0
2015-Feb-27 05:34N 50°37' E 000°38'1514.8
2015-Feb-27 04:34N 50°46' E 000°56'1515.1
2015-Feb-27 03:34N 50°56' E 001°14'1615.9
2015-Feb-27 02:33N 51°07' E 001°32'1716.8
2015-Feb-27 01:34N 51°19' E 001°51'1616.2
2015-Feb-27 00:34N 51°31' E 002°08'1615.7
2015-Feb-26 23:33N 51°43' E 002°25'3413.8
2015-Feb-26 21:06N 52°03' E 003°09'814.0
2015-Feb-26 20:32N 52°04' E 003°21'1414.0
2015-Feb-26 19:33N 52°03' E 003°44'10 9.9
2015-Feb-26 18:33N 52°01' E 003°59'4 4.3
2015-Feb-26 17:33N 51°58' E 004°04'1 1.1
2015-Feb-26 16:33N 51°58' E 004°02'0 0.0
2015-Feb-26 15:33N 51°58' E 004°02'0 0.0
2015-Feb-26 14:33N 51°58' E 004°02'0 0.0
2015-Feb-26 13:33N 51°58' E 004°02'0 0.0
2015-Feb-26 12:33N 51°58' E 004°02'0 0.0
2015-Feb-26 11:33N 51°58' E 004°02'0 0.0
2015-Feb-26 10:33N 51°58' E 004°02'0 0.0
2015-Feb-26 09:33N 51°58' E 004°02'0 0.0
2015-Feb-26 08:33N 51°58' E 004°02'0 0.0
2015-Feb-26 07:33N 51°58' E 004°02'0 0.0
2015-Feb-26 06:33N 51°58' E 004°02'0 0.0
2015-Feb-26 05:33N 51°58' E 004°02'0 0.0
2015-Feb-26 04:33N 51°58' E 004°02'0 0.0
2015-Feb-26 03:33N 51°58' E 004°02'0 0.0
2015-Feb-26 02:33N 51°58' E 004°02'0 0.0
2015-Feb-26 01:33N 51°58' E 004°02'0 0.0
2015-Feb-26 00:33N 51°58' E 004°02'0 0.0
2015-Feb-25 23:33N 51°58' E 004°02'0 0.0
2015-Feb-25 22:33N 51°58' E 004°02'0 0.0
2015-Feb-25 21:33N 51°58' E 004°02'0 0.0
2015-Feb-25 20:33N 51°58' E 004°02'0 0.0
2015-Feb-25 19:33N 51°58' E 004°02'0 0.0
2015-Feb-25 18:31N 51°58' E 004°02'0 0.0
2015-Feb-25 17:31N 51°58' E 004°02'0 0.0
2015-Feb-25 16:31N 51°58' E 004°02'0 0.0
2015-Feb-25 15:31N 51°58' E 004°02'0 0.1
2015-Feb-25 14:33N 51°58' E 004°02'3 3.2
2015-Feb-25 13:33N 51°60' E 003°58'2 2.3
2015-Feb-25 12:33N 51°60' E 003°54'7 7.1
2015-Feb-25 11:33N 51°58' E 003°43'9 8.7
2015-Feb-25 10:33N 51°54' E 003°30'0 0.0
2015-Feb-25 09:29N 51°54' E 003°30'0 0.0
2015-Feb-25 08:32N 51°54' E 003°30'0 0.0
2015-Feb-25 07:32N 51°54' E 003°30'0 0.0
2015-Feb-25 06:29N 51°54' E 003°30'0 0.0
2015-Feb-25 05:32N 51°54' E 003°31'0 0.1
2015-Feb-25 04:32N 51°54' E 003°31'0 0.2
2015-Feb-25 03:29N 51°54' E 003°30'0 0.1
2015-Feb-25 02:32N 51°54' E 003°30'0 0.0
2015-Feb-25 01:14N 51°54' E 003°30'0 0.0
2015-Feb-25 00:32N 51°54' E 003°30'0 0.2
2015-Feb-24 23:29N 51°54' E 003°31'0 0.1
2015-Feb-24 22:32N 51°54' E 003°31'0 0.0
2015-Feb-24 21:32N 51°54' E 003°31'0 0.1
2015-Feb-24 20:32N 51°54' E 003°31'0 0.0
2015-Feb-24 19:29N 51°54' E 003°31'0 0.0
2015-Feb-24 18:26N 51°54' E 003°31'0 0.0
2015-Feb-24 17:29N 51°54' E 003°31'0 0.1
2015-Feb-24 16:32N 51°54' E 003°31'0 0.0
2015-Feb-24 15:26N 51°54' E 003°31'0 0.2
2015-Feb-24 14:17N 51°54' E 003°30'0 0.1
2015-Feb-24 13:23N 51°54' E 003°30'0 0.0
2015-Feb-24 12:23N 51°54' E 003°30'0 0.2
2015-Feb-24 11:05N 51°54' E 003°31'0 0.1
2015-Feb-24 09:20N 51°54' E 003°31'0 0.1
2015-Feb-24 08:17N 51°54' E 003°31'0 0.7
2015-Feb-24 07:33N 51°54' E 003°31'1211.6
2015-Feb-24 06:33N 51°47' E 003°17'1615.8
2015-Feb-24 05:34N 51°32' E 003°07'9 8.9
2015-Feb-24 04:34N 51°25' E 003°15'1413.8
2015-Feb-24 03:33N 51°26' E 003°37'9 8.9
2015-Feb-24 02:33N 51°21' E 003°48'9 9.4
2015-Feb-24 01:34N 51°25' E 004°02'1010.2
2015-Feb-24 00:34N 51°20' E 004°16'3 2.4
2015-Feb-23 23:31N 51°17' E 004°16'0 0.0
2015-Feb-23 22:31N 51°17' E 004°16'0 0.0
2015-Feb-23 21:31N 51°17' E 004°16'0 0.0
2015-Feb-23 20:31N 51°17' E 004°16'0 0.0
2015-Feb-23 19:31N 51°17' E 004°16'0 0.0
2015-Feb-23 18:31N 51°17' E 004°16'0 0.0
2015-Feb-23 17:31N 51°17' E 004°16'0 0.0
2015-Feb-23 16:31N 51°17' E 004°16'0 0.0
2015-Feb-23 15:31N 51°17' E 004°16'0 0.0
2015-Feb-23 14:31N 51°17' E 004°16'0 0.0
2015-Feb-23 13:31N 51°17' E 004°16'0 0.0
2015-Feb-23 12:31N 51°17' E 004°16'0 0.0
2015-Feb-23 11:31N 51°17' E 004°16'0 0.0
2015-Feb-23 10:31N 51°17' E 004°16'0 0.0
2015-Feb-23 09:31N 51°17' E 004°16'0 0.0
2015-Feb-23 08:31N 51°17' E 004°16'0 0.0
2015-Feb-23 07:31N 51°17' E 004°16'0 0.0
2015-Feb-23 06:31N 51°17' E 004°16'0 0.0
2015-Feb-23 05:31N 51°17' E 004°16'0 0.0
2015-Feb-23 04:31N 51°17' E 004°16'0 0.0
2015-Feb-23 03:31N 51°17' E 004°16'  
Track history (hours):
 
Tides and Currents Weather Stations Pressure Air Temp Water Temp Dewpoint Dewpoint Depression Visibility Wind Speed Wind Dir Waves Ship Positions

CSCL Long Beach

Last reported at 2015-Mar-05 03:05 UTC. Time now 2015-Mar-06 04:05 UTC.
Position N 36°18' E 014°21'.

Length 336.7 m; beam 45.6 m; draft 15 m.

Type: Cargo ship. MMSI: 477883900.

Date/timePositionNaut miles runAvg speedWind from/ knotsBaromVisibWave heightAir tempDewpointWater temp
2015-Mar-05 03:05N 36°18' E 014°21'916.7
2015-Mar-05 02:33N 36°20' E 014°10'1716.5
2015-Mar-05 01:32N 36°25' E 013°50'1616.3
2015-Mar-05 00:33N 36°30' E 013°31'1716.4
2015-Mar-04 23:32N 36°35' E 013°12'1816.6
2015-Mar-04 22:26N 36°41' E 012°50'8016.3
2015-Mar-04 17:30N 37°18' E 011°20'1515.6
2015-Mar-04 16:33N 37°25' E 011°04'33217.0
2015-Mar-03 21:03N 37°43' E 004°06'1315.4
2015-Mar-03 20:13N 37°42' E 003°50'1015.2
2015-Mar-03 19:33N 37°41' E 003°37'2015.0
2015-Mar-03 18:12N 37°39' E 003°11'1015.0
2015-Mar-03 17:33N 37°37' E 002°59'1514.8
2015-Mar-03 16:32N 37°34' E 002°41'1514.9
2015-Mar-03 15:33N 37°30' E 002°23'1515.3
2015-Mar-03 14:33N 37°25' E 002°05'1615.9
2015-Mar-03 13:33N 37°20' E 001°46'1615.5
2015-Mar-03 12:33N 37°15' E 001°28'1815.8
2015-Mar-03 11:26N 37°09' E 001°07'1415.6
2015-Mar-03 10:33N 37°05' E 000°50'1615.8
2015-Mar-03 09:33N 36°59' E 000°32'1515.4
2015-Mar-03 08:34N 36°55' E 000°13'1918.7
2015-Mar-03 07:33N 36°49' W 000°09'1919.2
2015-Mar-03 06:33N 36°43' W 000°31'1615.6
2015-Mar-03 05:33N 36°35' W 000°48'1515.1
2015-Mar-03 04:33N 36°32' W 001°07'1615.5
2015-Mar-03 03:33N 36°28' W 001°25'1615.6
2015-Mar-03 02:33N 36°23' W 001°44'1715.4
2015-Mar-03 01:28N 36°17' W 002°03'15515.6
2015-Mar-02 15:33N 35°60' W 005°14'17515.8
2015-Mar-02 04:26N 36°29' W 008°48'1415.7
2015-Mar-02 03:33N 36°32' W 009°05'2015.2
2015-Mar-02 02:13N 36°41' W 009°28'2615.2
2015-Mar-02 00:30N 37°05' W 009°39'2115.6
2015-Mar-01 23:11N 37°25' W 009°44'1015.7
2015-Mar-01 22:33N 37°35' W 009°47'1615.7
2015-Mar-01 21:31N 37°51' W 009°52'1515.6
2015-Mar-01 20:33N 38°05' W 009°58'1716.6
2015-Mar-01 19:33N 38°21' W 010°03'1717.0
2015-Mar-01 18:33N 38°38' W 010°06'1716.5
2015-Mar-01 17:33N 38°55' W 010°07'1716.7
2015-Mar-01 16:33N 39°11' W 010°07'3316.2
2015-Mar-01 14:31N 39°44' W 010°06'1916.3
2015-Mar-01 13:19N 40°04' W 010°06'72814.1
2015-Feb-27 09:31N 50°20' W 000°56'1616.3
2015-Feb-27 08:33N 50°24' W 000°32'1715.8
2015-Feb-27 07:30N 50°28' W 000°07'1515.4
2015-Feb-27 06:32N 50°31' E 000°16'1515.0
2015-Feb-27 05:34N 50°37' E 000°38'1514.8
2015-Feb-27 04:34N 50°46' E 000°56'1515.1
2015-Feb-27 03:34N 50°56' E 001°14'1615.9
2015-Feb-27 02:33N 51°07' E 001°32'1716.8
2015-Feb-27 01:34N 51°19' E 001°51'1616.2
2015-Feb-27 00:34N 51°31' E 002°08'1615.7
2015-Feb-26 23:33N 51°43' E 002°25'3413.8
2015-Feb-26 21:06N 52°03' E 003°09'814.0
2015-Feb-26 20:32N 52°04' E 003°21'1414.0
2015-Feb-26 19:33N 52°03' E 003°44'10 9.9
2015-Feb-26 18:33N 52°01' E 003°59'4 4.3
2015-Feb-26 17:33N 51°58' E 004°04'1 1.1
2015-Feb-26 16:33N 51°58' E 004°02'0 0.0
2015-Feb-26 15:33N 51°58' E 004°02'0 0.0
2015-Feb-26 14:33N 51°58' E 004°02'0 0.0
2015-Feb-26 13:33N 51°58' E 004°02'0 0.0
2015-Feb-26 12:33N 51°58' E 004°02'0 0.0
2015-Feb-26 11:33N 51°58' E 004°02'0 0.0
2015-Feb-26 10:33N 51°58' E 004°02'0 0.0
2015-Feb-26 09:33N 51°58' E 004°02'0 0.0
2015-Feb-26 08:33N 51°58' E 004°02'0 0.0
2015-Feb-26 07:33N 51°58' E 004°02'0 0.0
2015-Feb-26 06:33N 51°58' E 004°02'0 0.0
2015-Feb-26 05:33N 51°58' E 004°02'0 0.0
2015-Feb-26 04:33N 51°58' E 004°02'0 0.0
2015-Feb-26 03:33N 51°58' E 004°02'0 0.0
2015-Feb-26 02:33N 51°58' E 004°02'0 0.0
2015-Feb-26 01:33N 51°58' E 004°02'0 0.0
2015-Feb-26 00:33N 51°58' E 004°02'0 0.0
2015-Feb-25 23:33N 51°58' E 004°02'0 0.0
2015-Feb-25 22:33N 51°58' E 004°02'0 0.0
2015-Feb-25 21:33N 51°58' E 004°02'0 0.0
2015-Feb-25 20:33N 51°58' E 004°02'0 0.0
2015-Feb-25 19:33N 51°58' E 004°02'0 0.0
2015-Feb-25 18:31N 51°58' E 004°02'0 0.0
2015-Feb-25 17:31N 51°58' E 004°02'0 0.0
2015-Feb-25 16:31N 51°58' E 004°02'0 0.0
2015-Feb-25 15:31N 51°58' E 004°02'0 0.1
2015-Feb-25 14:33N 51°58' E 004°02'3 3.2
2015-Feb-25 13:33N 51°60' E 003°58'2 2.3
2015-Feb-25 12:33N 51°60' E 003°54'7 7.1
2015-Feb-25 11:33N 51°58' E 003°43'9 8.7
2015-Feb-25 10:33N 51°54' E 003°30'0 0.0
2015-Feb-25 09:29N 51°54' E 003°30'0 0.0
2015-Feb-25 08:32N 51°54' E 003°30'0 0.0
2015-Feb-25 07:32N 51°54' E 003°30'0 0.0
2015-Feb-25 06:29N 51°54' E 003°30'0 0.0
2015-Feb-25 05:32N 51°54' E 003°31'0 0.1
2015-Feb-25 04:32N 51°54' E 003°31'0 0.2
2015-Feb-25 03:29N 51°54' E 003°30'0 0.1
2015-Feb-25 02:32N 51°54' E 003°30'0 0.0
2015-Feb-25 01:14N 51°54' E 003°30'0 0.0
2015-Feb-25 00:32N 51°54' E 003°30'0 0.2
2015-Feb-24 23:29N 51°54' E 003°31'0 0.1
2015-Feb-24 22:32N 51°54' E 003°31'0 0.0
2015-Feb-24 21:32N 51°54' E 003°31'0 0.1
2015-Feb-24 20:32N 51°54' E 003°31'0 0.0
2015-Feb-24 19:29N 51°54' E 003°31'0 0.0
2015-Feb-24 18:26N 51°54' E 003°31'0 0.0
2015-Feb-24 17:29N 51°54' E 003°31'0 0.1
2015-Feb-24 16:32N 51°54' E 003°31'0 0.0
2015-Feb-24 15:26N 51°54' E 003°31'0 0.2
2015-Feb-24 14:17N 51°54' E 003°30'0 0.1
2015-Feb-24 13:23N 51°54' E 003°30'0 0.0
2015-Feb-24 12:23N 51°54' E 003°30'0 0.2
2015-Feb-24 11:05N 51°54' E 003°31'0 0.1
2015-Feb-24 09:20N 51°54' E 003°31'0 0.1
2015-Feb-24 08:17N 51°54' E 003°31'0 0.7
2015-Feb-24 07:33N 51°54' E 003°31'1211.6
2015-Feb-24 06:33N 51°47' E 003°17'1615.8
2015-Feb-24 05:34N 51°32' E 003°07'9 8.9
2015-Feb-24 04:34N 51°25' E 003°15'1413.8
2015-Feb-24 03:33N 51°26' E 003°37'9 8.9
2015-Feb-24 02:33N 51°21' E 003°48'9 9.4
2015-Feb-24 01:34N 51°25' E 004°02'1010.2
2015-Feb-24 00:34N 51°20' E 004°16'3 2.4
2015-Feb-23 23:31N 51°17' E 004°16'0 0.0
2015-Feb-23 22:31N 51°17' E 004°16'0 0.0
2015-Feb-23 21:31N 51°17' E 004°16'0 0.0
2015-Feb-23 20:31N 51°17' E 004°16'0 0.0
2015-Feb-23 19:31N 51°17' E 004°16'0 0.0
2015-Feb-23 18:31N 51°17' E 004°16'0 0.0
2015-Feb-23 17:31N 51°17' E 004°16'0 0.0
2015-Feb-23 16:31N 51°17' E 004°16'0 0.0
2015-Feb-23 15:31N 51°17' E 004°16'0 0.0
2015-Feb-23 14:31N 51°17' E 004°16'0 0.0
2015-Feb-23 13:31N 51°17' E 004°16'0 0.0
2015-Feb-23 12:31N 51°17' E 004°16'0 0.0
2015-Feb-23 11:31N 51°17' E 004°16'0 0.0
2015-Feb-23 10:31N 51°17' E 004°16'0 0.0
2015-Feb-23 09:31N 51°17' E 004°16'0 0.0
2015-Feb-23 08:31N 51°17' E 004°16'0 0.0
2015-Feb-23 07:31N 51°17' E 004°16'0 0.0
2015-Feb-23 06:31N 51°17' E 004°16'0 0.0
2015-Feb-23 05:31N 51°17' E 004°16'0 0.0
2015-Feb-23 04:31N 51°17' E 004°16'0 0.0
2015-Feb-23 03:31N 51°17' E 004°16'  

Dump ship's entire track history